sensor_id;sensor_type;location;lat;lon;timestamp;P1;durP1;ratioP1;P2;durP2;ratioP2
66826;SDS011;53727;45.242;19.796;2022-11-21T00:00:12;72.43;;;41.17;;
66826;SDS011;53727;45.242;19.796;2022-11-21T00:02:39;66.68;;;37.95;;
66826;SDS011;53727;45.242;19.796;2022-11-21T00:05:05;74.72;;;44.85;;
66826;SDS011;53727;45.242;19.796;2022-11-21T00:07:31;79.40;;;43.60;;
66826;SDS011;53727;45.242;19.796;2022-11-21T00:09:57;71.05;;;41.03;;
66826;SDS011;53727;45.242;19.796;2022-11-21T00:12:23;79.65;;;45.00;;
66826;SDS011;53727;45.242;19.796;2022-11-21T00:14:49;77.75;;;43.58;;
66826;SDS011;53727;45.242;19.796;2022-11-21T00:17:15;88.45;;;48.58;;
66826;SDS011;53727;45.242;19.796;2022-11-21T00:19:41;78.40;;;43.78;;
66826;SDS011;53727;45.242;19.796;2022-11-21T00:22:07;92.30;;;47.60;;
66826;SDS011;53727;45.242;19.796;2022-11-21T00:24:33;75.25;;;40.90;;
66826;SDS011;53727;45.242;19.796;2022-11-21T00:26:59;67.40;;;38.85;;
66826;SDS011;53727;45.242;19.796;2022-11-21T00:29:25;66.45;;;38.95;;
66826;SDS011;53727;45.242;19.796;2022-11-21T00:31:51;62.13;;;38.13;;
66826;SDS011;53727;45.242;19.796;2022-11-21T00:34:17;61.10;;;37.75;;
66826;SDS011;53727;45.242;19.796;2022-11-21T00:36:43;67.20;;;39.50;;
66826;SDS011;53727;45.242;19.796;2022-11-21T00:39:09;64.82;;;39.88;;
66826;SDS011;53727;45.242;19.796;2022-11-21T00:41:35;72.78;;;42.10;;
66826;SDS011;53727;45.242;19.796;2022-11-21T00:44:02;78.63;;;46.47;;
66826;SDS011;53727;45.242;19.796;2022-11-21T00:46:28;78.80;;;49.88;;
66826;SDS011;53727;45.242;19.796;2022-11-21T00:48:54;80.18;;;44.10;;
66826;SDS011;53727;45.242;19.796;2022-11-21T00:51:20;73.00;;;42.65;;
66826;SDS011;53727;45.242;19.796;2022-11-21T00:53:46;71.88;;;43.03;;
66826;SDS011;53727;45.242;19.796;2022-11-21T00:56:12;66.43;;;40.08;;
66826;SDS011;53727;45.242;19.796;2022-11-21T00:58:39;64.18;;;38.38;;
66826;SDS011;53727;45.242;19.796;2022-11-21T01:01:09;72.85;;;41.50;;
66826;SDS011;53727;45.242;19.796;2022-11-21T01:03:36;65.97;;;38.40;;
66826;SDS011;53727;45.242;19.796;2022-11-21T01:06:03;63.53;;;36.28;;
66826;SDS011;53727;45.242;19.796;2022-11-21T01:08:29;62.95;;;38.58;;
66826;SDS011;53727;45.242;19.796;2022-11-21T01:10:55;61.95;;;38.50;;
66826;SDS011;53727;45.242;19.796;2022-11-21T01:13:21;56.22;;;35.08;;
66826;SDS011;53727;45.242;19.796;2022-11-21T01:15:47;60.55;;;35.55;;
66826;SDS011;53727;45.242;19.796;2022-11-21T01:18:13;60.83;;;37.42;;
66826;SDS011;53727;45.242;19.796;2022-11-21T01:20:39;61.45;;;37.30;;
66826;SDS011;53727;45.242;19.796;2022-11-21T01:23:05;57.67;;;34.92;;
66826;SDS011;53727;45.242;19.796;2022-11-21T01:25:34;61.92;;;38.47;;
66826;SDS011;53727;45.242;19.796;2022-11-21T01:28:01;63.00;;;37.75;;
66826;SDS011;53727;45.242;19.796;2022-11-21T01:30:27;54.95;;;35.38;;
66826;SDS011;53727;45.242;19.796;2022-11-21T01:32:53;58.58;;;36.03;;
66826;SDS011;53727;45.242;19.796;2022-11-21T01:35:19;61.38;;;36.30;;
66826;SDS011;53727;45.242;19.796;2022-11-21T01:37:46;57.70;;;34.65;;
66826;SDS011;53727;45.242;19.796;2022-11-21T01:40:12;57.05;;;34.33;;
66826;SDS011;53727;45.242;19.796;2022-11-21T01:48:12;54.65;;;34.50;;
66826;SDS011;53727;45.242;19.796;2022-11-21T01:50:38;56.75;;;34.60;;
66826;SDS011;53727;45.242;19.796;2022-11-21T01:53:04;55.38;;;35.15;;
66826;SDS011;53727;45.242;19.796;2022-11-21T01:55:30;61.33;;;35.40;;
66826;SDS011;53727;45.242;19.796;2022-11-21T01:57:57;54.35;;;34.50;;
66826;SDS011;53727;45.242;19.796;2022-11-21T02:00:23;58.20;;;34.50;;
66826;SDS011;53727;45.242;19.796;2022-11-21T02:02:58;58.33;;;34.35;;
66826;SDS011;53727;45.242;19.796;2022-11-21T02:05:25;53.50;;;33.63;;
66826;SDS011;53727;45.242;19.796;2022-11-21T02:07:54;53.53;;;34.50;;
66826;SDS011;53727;45.242;19.796;2022-11-21T02:10:22;65.43;;;36.05;;
66826;SDS011;53727;45.242;19.796;2022-11-21T02:15:14;53.33;;;34.17;;
66826;SDS011;53727;45.242;19.796;2022-11-21T02:17:41;55.35;;;34.60;;
66826;SDS011;53727;45.242;19.796;2022-11-21T02:20:08;55.17;;;33.25;;
66826;SDS011;53727;45.242;19.796;2022-11-21T02:25:14;55.85;;;32.65;;
66826;SDS011;53727;45.242;19.796;2022-11-21T02:27:42;56.45;;;35.05;;
66826;SDS011;53727;45.242;19.796;2022-11-21T02:30:09;58.22;;;34.53;;
66826;SDS011;53727;45.242;19.796;2022-11-21T02:32:37;57.88;;;35.35;;
66826;SDS011;53727;45.242;19.796;2022-11-21T02:35:03;57.70;;;34.97;;
66826;SDS011;53727;45.242;19.796;2022-11-21T02:37:30;54.08;;;33.97;;
66826;SDS011;53727;45.242;19.796;2022-11-21T02:39:57;60.08;;;35.00;;
66826;SDS011;53727;45.242;19.796;2022-11-21T02:42:29;57.92;;;36.28;;
66826;SDS011;53727;45.242;19.796;2022-11-21T02:45:08;57.30;;;35.53;;
66826;SDS011;53727;45.242;19.796;2022-11-21T02:47:38;58.25;;;35.25;;
66826;SDS011;53727;45.242;19.796;2022-11-21T02:50:15;55.97;;;34.53;;
66826;SDS011;53727;45.242;19.796;2022-11-21T02:52:44;57.22;;;34.85;;
66826;SDS011;53727;45.242;19.796;2022-11-21T02:55:10;58.00;;;35.40;;
66826;SDS011;53727;45.242;19.796;2022-11-21T02:57:37;57.42;;;36.00;;
66826;SDS011;53727;45.242;19.796;2022-11-21T03:00:04;62.13;;;36.03;;
66826;SDS011;53727;45.242;19.796;2022-11-21T03:02:30;60.83;;;36.00;;
66826;SDS011;53727;45.242;19.796;2022-11-21T03:04:56;56.97;;;35.35;;
66826;SDS011;53727;45.242;19.796;2022-11-21T03:07:22;55.28;;;33.58;;
66826;SDS011;53727;45.242;19.796;2022-11-21T03:09:48;56.47;;;34.80;;
66826;SDS011;53727;45.242;19.796;2022-11-21T03:12:14;55.80;;;34.25;;
66826;SDS011;53727;45.242;19.796;2022-11-21T03:14:40;56.60;;;35.80;;
66826;SDS011;53727;45.242;19.796;2022-11-21T03:17:06;60.80;;;35.63;;
66826;SDS011;53727;45.242;19.796;2022-11-21T03:19:32;60.05;;;35.67;;
66826;SDS011;53727;45.242;19.796;2022-11-21T03:21:59;59.38;;;34.95;;
66826;SDS011;53727;45.242;19.796;2022-11-21T03:24:25;53.67;;;34.42;;
66826;SDS011;53727;45.242;19.796;2022-11-21T03:26:51;54.17;;;33.42;;
66826;SDS011;53727;45.242;19.796;2022-11-21T03:29:17;55.25;;;35.03;;
66826;SDS011;53727;45.242;19.796;2022-11-21T03:31:43;56.63;;;34.10;;
66826;SDS011;53727;45.242;19.796;2022-11-21T03:34:09;58.72;;;34.60;;
66826;SDS011;53727;45.242;19.796;2022-11-21T03:36:35;57.33;;;33.60;;
66826;SDS011;53727;45.242;19.796;2022-11-21T03:39:01;61.60;;;35.33;;
66826;SDS011;53727;45.242;19.796;2022-11-21T03:41:27;55.90;;;34.15;;
66826;SDS011;53727;45.242;19.796;2022-11-21T03:43:54;56.03;;;34.30;;
66826;SDS011;53727;45.242;19.796;2022-11-21T03:46:20;54.58;;;34.65;;
66826;SDS011;53727;45.242;19.796;2022-11-21T03:48:46;58.75;;;35.38;;
66826;SDS011;53727;45.242;19.796;2022-11-21T03:51:12;53.88;;;32.88;;
66826;SDS011;53727;45.242;19.796;2022-11-21T03:53:38;52.88;;;33.95;;
66826;SDS011;53727;45.242;19.796;2022-11-21T03:56:04;51.95;;;33.22;;
66826;SDS011;53727;45.242;19.796;2022-11-21T03:58:30;57.47;;;34.33;;
66826;SDS011;53727;45.242;19.796;2022-11-21T04:00:56;57.83;;;34.38;;
66826;SDS011;53727;45.242;19.796;2022-11-21T04:03:22;54.40;;;34.03;;
66826;SDS011;53727;45.242;19.796;2022-11-21T04:05:48;57.63;;;33.72;;
66826;SDS011;53727;45.242;19.796;2022-11-21T04:08:14;55.15;;;32.90;;
66826;SDS011;53727;45.242;19.796;2022-11-21T04:10:50;56.05;;;33.33;;
66826;SDS011;53727;45.242;19.796;2022-11-21T04:13:16;55.00;;;33.45;;
66826;SDS011;53727;45.242;19.796;2022-11-21T04:15:43;54.05;;;32.53;;
66826;SDS011;53727;45.242;19.796;2022-11-21T04:18:09;52.47;;;32.70;;
66826;SDS011;53727;45.242;19.796;2022-11-21T04:20:35;55.45;;;33.50;;
66826;SDS011;53727;45.242;19.796;2022-11-21T04:23:01;52.45;;;32.08;;
66826;SDS011;53727;45.242;19.796;2022-11-21T04:25:27;51.85;;;31.52;;
66826;SDS011;53727;45.242;19.796;2022-11-21T04:28:00;52.03;;;32.45;;
66826;SDS011;53727;45.242;19.796;2022-11-21T04:30:27;52.00;;;33.28;;
66826;SDS011;53727;45.242;19.796;2022-11-21T04:32:53;53.13;;;32.42;;
66826;SDS011;53727;45.242;19.796;2022-11-21T04:35:20;54.20;;;33.92;;
66826;SDS011;53727;45.242;19.796;2022-11-21T04:37:46;55.63;;;33.15;;
66826;SDS011;53727;45.242;19.796;2022-11-21T04:40:12;54.85;;;33.15;;
66826;SDS011;53727;45.242;19.796;2022-11-21T04:42:41;54.55;;;33.17;;
66826;SDS011;53727;45.242;19.796;2022-11-21T04:45:08;52.90;;;31.90;;
66826;SDS011;53727;45.242;19.796;2022-11-21T04:47:35;50.72;;;32.20;;
66826;SDS011;53727;45.242;19.796;2022-11-21T04:50:01;54.35;;;33.38;;
66826;SDS011;53727;45.242;19.796;2022-11-21T04:52:27;56.47;;;32.90;;
66826;SDS011;53727;45.242;19.796;2022-11-21T04:54:53;55.00;;;31.88;;
66826;SDS011;53727;45.242;19.796;2022-11-21T04:57:19;54.05;;;34.15;;
66826;SDS011;53727;45.242;19.796;2022-11-21T04:59:45;65.18;;;39.45;;
66826;SDS011;53727;45.242;19.796;2022-11-21T05:02:11;69.55;;;40.25;;
66826;SDS011;53727;45.242;19.796;2022-11-21T05:04:38;62.67;;;35.92;;
66826;SDS011;53727;45.242;19.796;2022-11-21T05:07:04;58.50;;;36.67;;
66826;SDS011;53727;45.242;19.796;2022-11-21T05:09:30;57.08;;;34.00;;
66826;SDS011;53727;45.242;19.796;2022-11-21T05:11:56;54.10;;;34.85;;
66826;SDS011;53727;45.242;19.796;2022-11-21T05:14:41;53.83;;;33.20;;
66826;SDS011;53727;45.242;19.796;2022-11-21T05:17:07;53.85;;;32.33;;
66826;SDS011;53727;45.242;19.796;2022-11-21T05:19:33;52.53;;;33.53;;
66826;SDS011;53727;45.242;19.796;2022-11-21T05:21:59;53.97;;;33.17;;
66826;SDS011;53727;45.242;19.796;2022-11-21T05:24:25;47.95;;;32.33;;
66826;SDS011;53727;45.242;19.796;2022-11-21T05:26:52;53.70;;;32.58;;
66826;SDS011;53727;45.242;19.796;2022-11-21T05:29:18;52.88;;;33.50;;
66826;SDS011;53727;45.242;19.796;2022-11-21T05:31:44;51.83;;;32.33;;
66826;SDS011;53727;45.242;19.796;2022-11-21T05:34:10;51.97;;;32.92;;
66826;SDS011;53727;45.242;19.796;2022-11-21T05:36:37;53.53;;;34.70;;
66826;SDS011;53727;45.242;19.796;2022-11-21T05:39:03;53.60;;;32.85;;
66826;SDS011;53727;45.242;19.796;2022-11-21T05:41:29;50.05;;;32.28;;
66826;SDS011;53727;45.242;19.796;2022-11-21T05:43:55;48.90;;;32.58;;
66826;SDS011;53727;45.242;19.796;2022-11-21T05:46:22;49.40;;;31.45;;
66826;SDS011;53727;45.242;19.796;2022-11-21T05:48:48;48.55;;;30.88;;
66826;SDS011;53727;45.242;19.796;2022-11-21T05:51:15;47.95;;;30.65;;
66826;SDS011;53727;45.242;19.796;2022-11-21T05:53:42;50.60;;;32.08;;
66826;SDS011;53727;45.242;19.796;2022-11-21T05:56:09;52.15;;;34.03;;
66826;SDS011;53727;45.242;19.796;2022-11-21T05:58:36;49.40;;;31.60;;
66826;SDS011;53727;45.242;19.796;2022-11-21T06:01:02;56.25;;;34.05;;
66826;SDS011;53727;45.242;19.796;2022-11-21T06:03:29;57.83;;;35.35;;
66826;SDS011;53727;45.242;19.796;2022-11-21T06:05:59;60.03;;;35.88;;
66826;SDS011;53727;45.242;19.796;2022-11-21T06:08:26;61.55;;;35.25;;
66826;SDS011;53727;45.242;19.796;2022-11-21T06:10:52;69.18;;;39.60;;
66826;SDS011;53727;45.242;19.796;2022-11-21T06:13:18;57.85;;;32.25;;
66826;SDS011;53727;45.242;19.796;2022-11-21T06:18:14;48.92;;;28.50;;
66826;SDS011;53727;45.242;19.796;2022-11-21T06:20:40;45.92;;;29.35;;
66826;SDS011;53727;45.242;19.796;2022-11-21T06:23:06;48.70;;;28.45;;
66826;SDS011;53727;45.242;19.796;2022-11-21T06:25:32;44.92;;;28.70;;
66826;SDS011;53727;45.242;19.796;2022-11-21T06:27:58;48.05;;;29.05;;
66826;SDS011;53727;45.242;19.796;2022-11-21T06:30:24;50.08;;;29.10;;
66826;SDS011;53727;45.242;19.796;2022-11-21T06:32:50;47.47;;;28.25;;
66826;SDS011;53727;45.242;19.796;2022-11-21T06:35:16;105.50;;;72.45;;
66826;SDS011;53727;45.242;19.796;2022-11-21T06:37:42;55.42;;;35.28;;
66826;SDS011;53727;45.242;19.796;2022-11-21T06:40:09;56.50;;;35.45;;
66826;SDS011;53727;45.242;19.796;2022-11-21T06:42:35;57.72;;;34.58;;
66826;SDS011;53727;45.242;19.796;2022-11-21T06:45:01;63.90;;;39.70;;
66826;SDS011;53727;45.242;19.796;2022-11-21T06:47:27;71.35;;;45.08;;
66826;SDS011;53727;45.242;19.796;2022-11-21T06:49:53;65.15;;;42.25;;
66826;SDS011;53727;45.242;19.796;2022-11-21T06:52:19;65.70;;;40.45;;
66826;SDS011;53727;45.242;19.796;2022-11-21T06:54:45;66.25;;;41.03;;
66826;SDS011;53727;45.242;19.796;2022-11-21T06:57:11;61.35;;;39.83;;
66826;SDS011;53727;45.242;19.796;2022-11-21T06:59:37;72.30;;;43.20;;
66826;SDS011;53727;45.242;19.796;2022-11-21T07:02:03;89.55;;;58.80;;
66826;SDS011;53727;45.242;19.796;2022-11-21T07:04:29;78.60;;;46.38;;
66826;SDS011;53727;45.242;19.796;2022-11-21T07:06:55;76.45;;;47.10;;
66826;SDS011;53727;45.242;19.796;2022-11-21T07:09:21;68.78;;;42.20;;
66826;SDS011;53727;45.242;19.796;2022-11-21T07:11:47;66.38;;;39.55;;
66826;SDS011;53727;45.242;19.796;2022-11-21T07:14:13;66.63;;;40.42;;
66826;SDS011;53727;45.242;19.796;2022-11-21T07:16:39;69.60;;;39.38;;
66826;SDS011;53727;45.242;19.796;2022-11-21T07:19:05;65.45;;;35.55;;
66826;SDS011;53727;45.242;19.796;2022-11-21T07:21:32;64.25;;;37.78;;
66826;SDS011;53727;45.242;19.796;2022-11-21T07:23:58;56.47;;;31.08;;
66826;SDS011;53727;45.242;19.796;2022-11-21T07:26:24;58.58;;;37.10;;
66826;SDS011;53727;45.242;19.796;2022-11-21T07:28:50;55.95;;;34.10;;
66826;SDS011;53727;45.242;19.796;2022-11-21T07:31:16;50.05;;;31.08;;
66826;SDS011;53727;45.242;19.796;2022-11-21T07:33:42;55.90;;;33.10;;
66826;SDS011;53727;45.242;19.796;2022-11-21T07:36:10;50.58;;;30.27;;
66826;SDS011;53727;45.242;19.796;2022-11-21T07:38:36;45.45;;;29.23;;
66826;SDS011;53727;45.242;19.796;2022-11-21T07:41:02;45.03;;;26.83;;
66826;SDS011;53727;45.242;19.796;2022-11-21T07:43:28;46.20;;;27.75;;
66826;SDS011;53727;45.242;19.796;2022-11-21T07:45:55;46.67;;;27.25;;
66826;SDS011;53727;45.242;19.796;2022-11-21T07:48:21;43.30;;;25.75;;
66826;SDS011;53727;45.242;19.796;2022-11-21T07:50:47;44.00;;;25.90;;
66826;SDS011;53727;45.242;19.796;2022-11-21T07:53:13;39.92;;;23.60;;
66826;SDS011;53727;45.242;19.796;2022-11-21T07:55:39;41.47;;;23.65;;
66826;SDS011;53727;45.242;19.796;2022-11-21T07:58:06;37.33;;;21.40;;
66826;SDS011;53727;45.242;19.796;2022-11-21T08:00:33;40.03;;;23.08;;
66826;SDS011;53727;45.242;19.796;2022-11-21T08:03:00;40.70;;;25.45;;
66826;SDS011;53727;45.242;19.796;2022-11-21T08:05:26;40.83;;;24.02;;
66826;SDS011;53727;45.242;19.796;2022-11-21T08:07:52;40.55;;;25.63;;
66826;SDS011;53727;45.242;19.796;2022-11-21T08:10:18;36.90;;;21.83;;
66826;SDS011;53727;45.242;19.796;2022-11-21T08:12:44;39.53;;;22.45;;
66826;SDS011;53727;45.242;19.796;2022-11-21T08:15:11;41.97;;;27.02;;
66826;SDS011;53727;45.242;19.796;2022-11-21T08:17:37;45.20;;;25.90;;
66826;SDS011;53727;45.242;19.796;2022-11-21T08:20:07;42.63;;;25.05;;
66826;SDS011;53727;45.242;19.796;2022-11-21T08:22:37;40.47;;;26.00;;
66826;SDS011;53727;45.242;19.796;2022-11-21T08:25:03;39.30;;;26.95;;
66826;SDS011;53727;45.242;19.796;2022-11-21T08:27:29;37.90;;;22.65;;
66826;SDS011;53727;45.242;19.796;2022-11-21T08:29:55;39.90;;;25.00;;
66826;SDS011;53727;45.242;19.796;2022-11-21T08:32:21;41.42;;;25.50;;
66826;SDS011;53727;45.242;19.796;2022-11-21T08:34:48;38.55;;;22.10;;
66826;SDS011;53727;45.242;19.796;2022-11-21T08:37:14;37.58;;;20.80;;
66826;SDS011;53727;45.242;19.796;2022-11-21T08:39:40;37.75;;;22.13;;
66826;SDS011;53727;45.242;19.796;2022-11-21T08:42:06;36.28;;;22.13;;
66826;SDS011;53727;45.242;19.796;2022-11-21T08:44:32;39.97;;;22.20;;
66826;SDS011;53727;45.242;19.796;2022-11-21T08:46:59;40.50;;;26.05;;
66826;SDS011;53727;45.242;19.796;2022-11-21T08:49:25;45.25;;;24.95;;
66826;SDS011;53727;45.242;19.796;2022-11-21T08:51:52;41.15;;;24.73;;
66826;SDS011;53727;45.242;19.796;2022-11-21T08:54:18;34.63;;;21.23;;
66826;SDS011;53727;45.242;19.796;2022-11-21T08:56:45;34.45;;;20.08;;
66826;SDS011;53727;45.242;19.796;2022-11-21T08:59:11;29.75;;;18.20;;
66826;SDS011;53727;45.242;19.796;2022-11-21T09:01:37;32.15;;;19.55;;
66826;SDS011;53727;45.242;19.796;2022-11-21T09:04:04;32.10;;;20.52;;
66826;SDS011;53727;45.242;19.796;2022-11-21T09:06:30;36.00;;;22.00;;
66826;SDS011;53727;45.242;19.796;2022-11-21T09:08:56;33.72;;;21.40;;
66826;SDS011;53727;45.242;19.796;2022-11-21T09:11:22;31.25;;;18.60;;
66826;SDS011;53727;45.242;19.796;2022-11-21T09:13:49;32.45;;;18.98;;
66826;SDS011;53727;45.242;19.796;2022-11-21T09:16:34;35.03;;;19.27;;
66826;SDS011;53727;45.242;19.796;2022-11-21T09:19:19;35.00;;;19.15;;
66826;SDS011;53727;45.242;19.796;2022-11-21T09:21:48;41.67;;;17.52;;
66826;SDS011;53727;45.242;19.796;2022-11-21T09:24:14;34.35;;;17.25;;
66826;SDS011;53727;45.242;19.796;2022-11-21T09:26:41;33.00;;;18.00;;
66826;SDS011;53727;45.242;19.796;2022-11-21T09:29:07;33.28;;;17.88;;
66826;SDS011;53727;45.242;19.796;2022-11-21T09:31:35;28.20;;;17.15;;
66826;SDS011;53727;45.242;19.796;2022-11-21T09:34:02;30.10;;;16.58;;
66826;SDS011;53727;45.242;19.796;2022-11-21T09:36:28;28.00;;;16.08;;
66826;SDS011;53727;45.242;19.796;2022-11-21T09:38:54;32.90;;;17.00;;
66826;SDS011;53727;45.242;19.796;2022-11-21T09:44:21;30.25;;;18.80;;
66826;SDS011;53727;45.242;19.796;2022-11-21T09:46:54;35.10;;;20.48;;
66826;SDS011;53727;45.242;19.796;2022-11-21T09:49:24;37.17;;;21.77;;
66826;SDS011;53727;45.242;19.796;2022-11-21T09:51:51;31.60;;;19.20;;
66826;SDS011;53727;45.242;19.796;2022-11-21T09:56:44;35.80;;;23.08;;
66826;SDS011;53727;45.242;19.796;2022-11-21T10:01:37;28.40;;;16.90;;
66826;SDS011;53727;45.242;19.796;2022-11-21T10:04:04;29.98;;;16.90;;
66826;SDS011;53727;45.242;19.796;2022-11-21T10:07:03;39.47;;;18.27;;
66826;SDS011;53727;45.242;19.796;2022-11-21T10:09:34;28.95;;;18.98;;
66826;SDS011;53727;45.242;19.796;2022-11-21T10:12:27;31.70;;;19.33;;
66826;SDS011;53727;45.242;19.796;2022-11-21T10:20:20;33.40;;;20.40;;
66826;SDS011;53727;45.242;19.796;2022-11-21T10:25:50;37.35;;;21.58;;
66826;SDS011;53727;45.242;19.796;2022-11-21T10:28:32;29.88;;;16.40;;
66826;SDS011;53727;45.242;19.796;2022-11-21T10:31:03;24.38;;;16.48;;
66826;SDS011;53727;45.242;19.796;2022-11-21T10:33:33;28.50;;;17.23;;
66826;SDS011;53727;45.242;19.796;2022-11-21T10:36:22;27.45;;;16.80;;
66826;SDS011;53727;45.242;19.796;2022-11-21T10:38:49;29.13;;;17.45;;
66826;SDS011;53727;45.242;19.796;2022-11-21T10:41:19;24.73;;;16.35;;
66826;SDS011;53727;45.242;19.796;2022-11-21T10:43:54;29.55;;;18.25;;
66826;SDS011;53727;45.242;19.796;2022-11-21T10:46:39;25.30;;;16.58;;
66826;SDS011;53727;45.242;19.796;2022-11-21T10:49:18;25.33;;;16.85;;
66826;SDS011;53727;45.242;19.796;2022-11-21T10:51:46;28.65;;;19.55;;
66826;SDS011;53727;45.242;19.796;2022-11-21T10:54:15;30.42;;;19.02;;
66826;SDS011;53727;45.242;19.796;2022-11-21T10:57:06;26.65;;;17.58;;
66826;SDS011;53727;45.242;19.796;2022-11-21T10:59:36;30.02;;;17.98;;
66826;SDS011;53727;45.242;19.796;2022-11-21T11:04:37;27.38;;;15.27;;
66826;SDS011;53727;45.242;19.796;2022-11-21T11:07:18;26.05;;;16.25;;
66826;SDS011;53727;45.242;19.796;2022-11-21T11:09:45;25.08;;;16.35;;
66826;SDS011;53727;45.242;19.796;2022-11-21T11:14:50;28.88;;;16.35;;
66826;SDS011;53727;45.242;19.796;2022-11-21T11:17:24;32.67;;;17.88;;
66826;SDS011;53727;45.242;19.796;2022-11-21T11:20:18;29.02;;;16.02;;
66826;SDS011;53727;45.242;19.796;2022-11-21T11:22:52;27.88;;;14.98;;
66826;SDS011;53727;45.242;19.796;2022-11-21T11:25:18;25.35;;;15.70;;
66826;SDS011;53727;45.242;19.796;2022-11-21T11:27:44;28.95;;;17.15;;
66826;SDS011;53727;45.242;19.796;2022-11-21T11:30:13;30.00;;;16.45;;
66826;SDS011;53727;45.242;19.796;2022-11-21T11:32:40;27.35;;;14.80;;
66826;SDS011;53727;45.242;19.796;2022-11-21T11:35:09;22.85;;;14.82;;
66826;SDS011;53727;45.242;19.796;2022-11-21T11:37:42;29.42;;;17.23;;
66826;SDS011;53727;45.242;19.796;2022-11-21T11:48:21;24.50;;;14.77;;
66826;SDS011;53727;45.242;19.796;2022-11-21T11:50:50;25.67;;;18.15;;
66826;SDS011;53727;45.242;19.796;2022-11-21T11:53:24;34.47;;;22.55;;
66826;SDS011;53727;45.242;19.796;2022-11-21T11:58:19;22.67;;;14.80;;
66826;SDS011;53727;45.242;19.796;2022-11-21T12:03:42;20.38;;;14.00;;
66826;SDS011;53727;45.242;19.796;2022-11-21T12:06:15;23.88;;;16.23;;
66826;SDS011;53727;45.242;19.796;2022-11-21T12:14:17;22.60;;;12.98;;
66826;SDS011;53727;45.242;19.796;2022-11-21T12:17:05;21.88;;;13.27;;
66826;SDS011;53727;45.242;19.796;2022-11-21T12:19:33;20.88;;;12.07;;
66826;SDS011;53727;45.242;19.796;2022-11-21T12:22:00;21.13;;;11.40;;
66826;SDS011;53727;45.242;19.796;2022-11-21T12:24:30;19.85;;;11.18;;
66826;SDS011;53727;45.242;19.796;2022-11-21T12:34:30;17.40;;;10.73;;
66826;SDS011;53727;45.242;19.796;2022-11-21T12:44:52;19.40;;;12.82;;
66826;SDS011;53727;45.242;19.796;2022-11-21T12:50:13;22.40;;;12.13;;
66826;SDS011;53727;45.242;19.796;2022-11-21T12:53:02;18.83;;;12.10;;
66826;SDS011;53727;45.242;19.796;2022-11-21T12:55:48;20.27;;;12.52;;
66826;SDS011;53727;45.242;19.796;2022-11-21T12:58:30;20.42;;;12.82;;
66826;SDS011;53727;45.242;19.796;2022-11-21T13:06:21;15.40;;;10.65;;
66826;SDS011;53727;45.242;19.796;2022-11-21T13:08:48;21.35;;;12.82;;
66826;SDS011;53727;45.242;19.796;2022-11-21T13:14:06;26.58;;;11.40;;
66826;SDS011;53727;45.242;19.796;2022-11-21T13:16:35;20.52;;;10.60;;
66826;SDS011;53727;45.242;19.796;2022-11-21T13:19:23;18.77;;;11.40;;
66826;SDS011;53727;45.242;19.796;2022-11-21T13:21:49;23.35;;;11.07;;
66826;SDS011;53727;45.242;19.796;2022-11-21T13:27:02;19.70;;;12.35;;
66826;SDS011;53727;45.242;19.796;2022-11-21T13:29:28;18.77;;;11.23;;
66826;SDS011;53727;45.242;19.796;2022-11-21T13:31:54;16.75;;;11.77;;
66826;SDS011;53727;45.242;19.796;2022-11-21T13:36:55;21.02;;;12.25;;
66826;SDS011;53727;45.242;19.796;2022-11-21T13:39:26;22.65;;;11.75;;
66826;SDS011;53727;45.242;19.796;2022-11-21T13:41:59;18.10;;;10.98;;
66826;SDS011;53727;45.242;19.796;2022-11-21T13:44:44;21.17;;;10.55;;
66826;SDS011;53727;45.242;19.796;2022-11-21T13:54:56;16.48;;;11.60;;
66826;SDS011;53727;45.242;19.796;2022-11-21T13:57:35;18.10;;;12.15;;
66826;SDS011;53727;45.242;19.796;2022-11-21T14:07:40;21.73;;;11.27;;
66826;SDS011;53727;45.242;19.796;2022-11-21T14:12:44;20.75;;;14.43;;
66826;SDS011;53727;45.242;19.796;2022-11-21T14:15:30;17.05;;;13.20;;
66826;SDS011;53727;45.242;19.796;2022-11-21T14:17:59;21.83;;;14.65;;
66826;SDS011;53727;45.242;19.796;2022-11-21T14:20:27;21.55;;;15.27;;
66826;SDS011;53727;45.242;19.796;2022-11-21T14:25:44;24.55;;;16.63;;
66826;SDS011;53727;45.242;19.796;2022-11-21T14:28:10;23.08;;;15.98;;
66826;SDS011;53727;45.242;19.796;2022-11-21T14:30:38;22.67;;;16.45;;
66826;SDS011;53727;45.242;19.796;2022-11-21T14:33:23;24.65;;;15.68;;
66826;SDS011;53727;45.242;19.796;2022-11-21T14:35:51;27.98;;;19.67;;
66826;SDS011;53727;45.242;19.796;2022-11-21T14:38:18;26.98;;;18.33;;
66826;SDS011;53727;45.242;19.796;2022-11-21T14:40:45;29.58;;;19.88;;
66826;SDS011;53727;45.242;19.796;2022-11-21T14:43:26;26.27;;;17.80;;
66826;SDS011;53727;45.242;19.796;2022-11-21T14:45:53;25.50;;;17.23;;
66826;SDS011;53727;45.242;19.796;2022-11-21T14:48:26;47.13;;;25.20;;
66826;SDS011;53727;45.242;19.796;2022-11-21T14:50:52;25.97;;;18.77;;
66826;SDS011;53727;45.242;19.796;2022-11-21T14:53:18;27.45;;;18.50;;
66826;SDS011;53727;45.242;19.796;2022-11-21T14:55:47;28.02;;;19.55;;
66826;SDS011;53727;45.242;19.796;2022-11-21T14:58:15;26.40;;;19.48;;
66826;SDS011;53727;45.242;19.796;2022-11-21T15:00:43;37.33;;;22.10;;
66826;SDS011;53727;45.242;19.796;2022-11-21T15:03:26;31.50;;;21.67;;
66826;SDS011;53727;45.242;19.796;2022-11-21T15:06:02;34.65;;;24.23;;
66826;SDS011;53727;45.242;19.796;2022-11-21T15:08:29;49.83;;;34.47;;
66826;SDS011;53727;45.242;19.796;2022-11-21T15:10:55;45.95;;;30.10;;
66826;SDS011;53727;45.242;19.796;2022-11-21T15:13:22;36.90;;;23.92;;
66826;SDS011;53727;45.242;19.796;2022-11-21T15:15:50;40.55;;;24.80;;
66826;SDS011;53727;45.242;19.796;2022-11-21T15:18:21;31.08;;;21.42;;
66826;SDS011;53727;45.242;19.796;2022-11-21T15:20:48;30.25;;;20.70;;
66826;SDS011;53727;45.242;19.796;2022-11-21T15:25:50;30.55;;;20.98;;
66826;SDS011;53727;45.242;19.796;2022-11-21T15:28:17;32.97;;;24.45;;
66826;SDS011;53727;45.242;19.796;2022-11-21T15:30:43;33.95;;;25.10;;
66826;SDS011;53727;45.242;19.796;2022-11-21T15:33:10;42.05;;;28.50;;
66826;SDS011;53727;45.242;19.796;2022-11-21T15:46:01;79.40;;;42.90;;
66826;SDS011;53727;45.242;19.796;2022-11-21T15:48:27;96.90;;;43.22;;
66826;SDS011;53727;45.242;19.796;2022-11-21T15:50:54;85.03;;;40.47;;
66826;SDS011;53727;45.242;19.796;2022-11-21T15:53:20;76.85;;;35.55;;
66826;SDS011;53727;45.242;19.796;2022-11-21T15:55:46;69.93;;;35.42;;
66826;SDS011;53727;45.242;19.796;2022-11-21T15:58:12;42.83;;;27.42;;
66826;SDS011;53727;45.242;19.796;2022-11-21T16:00:39;50.80;;;32.42;;
66826;SDS011;53727;45.242;19.796;2022-11-21T16:03:05;61.22;;;39.47;;
66826;SDS011;53727;45.242;19.796;2022-11-21T16:05:31;70.88;;;48.03;;
66826;SDS011;53727;45.242;19.796;2022-11-21T16:07:57;57.60;;;40.08;;
66826;SDS011;53727;45.242;19.796;2022-11-21T16:10:23;50.90;;;34.28;;
66826;SDS011;53727;45.242;19.796;2022-11-21T16:12:49;61.50;;;34.47;;